Time;durP1;ratioP1;P1;durP2;ratioP2;P2;SDS_P1;SDS_P2;PMS_P1;PMS_P2;Temp;Humidity;BMP_temperature;BMP_pressure;BME280_temperature;BME280_humidity;BME280_pressure;Samples;Min_cycle;Max_cycle;Signal;HPM_P1;HPM_P2
2022/09/05 00:04:51;;;;;;;5.88;3.38;;;;;;;;;;5111073;27;20737;-70
2022/09/05 00:07:35;;;;;;;6.13;3.05;;;;;;;;;;5111326;28;20081;-71
2022/09/05 00:11:38;;;;;;;6.10;3.15;;;;;;;;;;5111240;27;20393;-70
2022/09/05 00:16:34;;;;;;;4.88;2.92;;;;;;;;;;5111334;27;20453;-70
2022/09/05 00:19:32;;;;;;;5.80;3.08;;;;;;;;;;5110972;27;20393;-70
2022/09/05 00:23:53;;;;;;;5.65;2.80;;;;;;;;;;5111629;27;20451;-70
2022/09/05 00:30:06;;;;;;;5.10;2.80;;;;;;;;;;5111207;27;20134;-70
2022/09/05 00:32:48;;;;;;;8.90;3.20;;;;;;;;;;5109582;28;20035;-70
2022/09/05 00:35:32;;;;;;;6.05;2.80;;;;;;;;;;5111467;28;20020;-70
2022/09/05 00:39:11;;;;;;;7.22;2.65;;;;;;;;;;5111392;27;20393;-70
2022/09/05 00:41:55;;;;;;;5.40;2.70;;;;;;;;;;5111448;27;20400;-70
2022/09/05 00:44:24;;;;;;;4.65;2.53;;;;;;;;;;5111272;28;20107;-70
2022/09/05 00:47:58;;;;;;;5.95;2.40;;;;;;;;;;5111036;27;20807;-70
2022/09/05 00:50:27;;;;;;;5.45;2.92;;;;;;;;;;5111502;28;20031;-70
2022/09/05 00:52:57;;;;;;;6.18;2.30;;;;;;;;;;5110782;28;20513;-70
2022/09/05 00:58:50;;;;;;;5.03;2.70;;;;;;;;;;5111960;27;20411;-70
2022/09/05 01:01:29;;;;;;;7.20;2.53;;;;;;;;;;5109483;28;20031;-70
2022/09/05 01:04:10;;;;;;;4.90;2.67;;;;;;;;;;5111200;28;20024;-70
2022/09/05 01:12:04;;;;;;;5.15;2.78;;;;;;;;;;5111778;27;20392;-70
2022/09/05 01:15:09;;;;;;;6.35;2.60;;;;;;;;;;5110860;27;20469;-71
2022/09/05 01:21:25;;;;;;;5.10;2.55;;;;;;;;;;5111140;27;20471;-70
2022/09/05 01:23:51;;;;;;;7.13;2.38;;;;;;;;;;5110062;28;20034;-70
2022/09/05 01:26:27;;;;;;;4.90;2.70;;;;;;;;;;5111176;28;20034;-70
2022/09/05 01:28:56;;;;;;;4.43;2.67;;;;;;;;;;5110962;28;20024;-72
2022/09/05 01:31:37;;;;;;;6.00;2.42;;;;;;;;;;5111073;28;20020;-70
2022/09/05 01:34:26;;;;;;;4.38;2.13;;;;;;;;;;5111085;28;20620;-70
2022/09/05 01:36:55;;;;;;;4.75;2.38;;;;;;;;;;5110645;28;20055;-70
2022/09/05 01:40:16;;;;;;;5.72;2.72;;;;;;;;;;5111435;27;20396;-71
2022/09/05 01:43:17;;;;;;;6.40;2.50;;;;;;;;;;5111020;28;20074;-70
2022/09/05 01:45:46;;;;;;;6.40;2.88;;;;;;;;;;5048565;28;20043;-70
2022/09/05 01:49:15;;;;;;;6.07;2.58;;;;;;;;;;5110969;27;20388;-70
2022/09/05 01:51:56;;;;;;;6.20;3.13;;;;;;;;;;5111233;28;20020;-70
2022/09/05 01:54:31;;;;;;;7.20;3.40;;;;;;;;;;5111396;28;20032;-70
2022/09/05 02:01:11;;;;;;;6.32;2.90;;;;;;;;;;5111788;27;20454;-70
2022/09/05 02:03:41;;;;;;;6.30;3.53;;;;;;;;;;5109635;28;20031;-70
2022/09/05 02:06:26;;;;;;;7.25;3.58;;;;;;;;;;5111388;28;20052;-70
2022/09/05 02:12:02;;;;;;;11.00;3.53;;;;;;;;;;5070375;28;20445;-70
2022/09/05 02:14:44;;;;;;;6.30;3.15;;;;;;;;;;5070723;28;20028;-70
2022/09/05 02:17:16;;;;;;;6.22;3.15;;;;;;;;;;5070749;28;20099;-70
2022/09/05 02:19:46;;;;;;;5.80;3.30;;;;;;;;;;5070677;28;20410;-70
2022/09/05 02:22:18;;;;;;;6.03;3.58;;;;;;;;;;5069303;28;20285;-70
2022/09/05 02:24:46;;;;;;;6.82;3.15;;;;;;;;;;5068853;28;20212;-70
2022/09/05 02:29:46;;;;;;;6.03;3.30;;;;;;;;;;5111925;27;20461;-70
2022/09/05 02:32:12;;;;;;;5.53;2.88;;;;;;;;;;5110964;28;20024;-70
2022/09/05 02:34:53;;;;;;;4.78;2.70;;;;;;;;;;5111194;28;20016;-69
2022/09/05 02:37:25;;;;;;;5.93;2.58;;;;;;;;;;5111141;28;20024;-70
2022/09/05 02:43:37;;;;;;;7.57;3.22;;;;;;;;;;5111451;27;20461;-70
2022/09/05 02:52:09;;;;;;;5.30;2.88;;;;;;;;;;5111163;27;20401;-70
2022/09/05 02:54:43;;;;;;;6.00;3.35;;;;;;;;;;5111565;28;20028;-70
2022/09/05 02:59:00;;;;;;;5.50;2.58;;;;;;;;;;5111515;27;20412;-70
2022/09/05 03:01:29;;;;;;;4.88;2.72;;;;;;;;;;5088289;28;20032;-70
2022/09/05 03:04:44;;;;;;;6.03;3.22;;;;;;;;;;5111488;27;20397;-70
2022/09/05 03:12:06;;;;;;;6.10;3.22;;;;;;;;;;5112053;27;20552;-70
2022/09/05 03:14:47;;;;;;;6.85;3.42;;;;;;;;;;5111150;28;20023;-70
2022/09/05 03:17:20;;;;;;;6.80;3.28;;;;;;;;;;5111307;28;20030;-70
2022/09/05 03:19:55;;;;;;;6.50;3.50;;;;;;;;;;5111257;28;20077;-70
2022/09/05 03:28:17;;;;;;;5.80;3.33;;;;;;;;;;5111105;27;20477;-69
2022/09/05 03:30:49;;;;;;;7.30;3.40;;;;;;;;;;5111497;28;20020;-70
2022/09/05 03:37:10;;;;;;;6.72;3.40;;;;;;;;;;5111635;27;20423;-69
2022/09/05 03:40:19;;;;;;;9.15;3.85;;;;;;;;;;5071100;28;20387;-70
2022/09/05 03:43:15;;;;;;;5.10;2.97;;;;;;;;;;5069085;28;20029;-70
2022/09/05 03:48:11;;;;;;;5.35;3.13;;;;;;;;;;5112172;27;20789;-70
2022/09/05 03:50:57;;;;;;;7.40;3.50;;;;;;;;;;5109604;28;20484;-70
2022/09/05 03:54:17;;;;;;;6.50;3.30;;;;;;;;;;5111457;27;20876;-70
2022/09/05 03:57:02;;;;;;;7.35;3.08;;;;;;;;;;5109952;28;20470;-70
2022/09/05 03:59:44;;;;;;;8.88;3.92;;;;;;;;;;5111310;28;20461;-70
2022/09/05 04:02:13;;;;;;;9.02;3.50;;;;;;;;;;5111217;28;20473;-71
2022/09/05 04:07:34;;;;;;;6.72;3.67;;;;;;;;;;5111533;27;20401;-70
2022/09/05 04:10:20;;;;;;;6.45;3.58;;;;;;;;;;5110806;28;20020;-70
2022/09/05 04:12:54;;;;;;;6.88;3.95;;;;;;;;;;5111410;28;20031;-70
2022/09/05 04:15:30;;;;;;;7.68;3.10;;;;;;;;;;5111634;28;20028;-70
2022/09/05 04:18:05;;;;;;;6.75;4.00;;;;;;;;;;5110837;28;20031;-70
2022/09/05 04:22:19;;;;;;;8.38;4.22;;;;;;;;;;5071093;28;20407;-70
2022/09/05 04:24:45;;;;;;;9.85;3.83;;;;;;;;;;5052685;28;20036;-70
2022/09/05 04:27:20;;;;;;;8.32;4.07;;;;;;;;;;5052699;28;20029;-70
2022/09/05 04:30:00;;;;;;;12.98;3.95;;;;;;;;;;5070596;28;20029;-70
2022/09/05 04:32:26;;;;;;;10.20;4.15;;;;;;;;;;5070133;28;20384;-70
2022/09/05 04:36:02;;;;;;;13.02;3.78;;;;;;;;;;5112080;27;20734;-70
2022/09/05 04:38:36;;;;;;;8.90;4.10;;;;;;;;;;5110938;28;20373;-70
2022/09/05 04:41:07;;;;;;;7.10;3.75;;;;;;;;;;5111311;28;20024;-70
2022/09/05 04:43:42;;;;;;;7.63;3.97;;;;;;;;;;5111290;28;20031;-70
2022/09/05 04:48:56;;;;;;;7.45;3.78;;;;;;;;;;5111827;27;20396;-70
2022/09/05 04:52:53;;;;;;;8.63;3.80;;;;;;;;;;5110987;27;20116;-70
2022/09/05 04:55:23;;;;;;;7.10;4.15;;;;;;;;;;5111432;28;20043;-71
2022/09/05 04:59:40;;;;;;;6.95;3.25;;;;;;;;;;5111322;27;20396;-70
2022/09/05 05:02:36;;;;;;;7.60;3.13;;;;;;;;;;5108770;28;20051;-70
2022/09/05 05:05:23;;;;;;;9.48;4.70;;;;;;;;;;5069643;28;20407;-70
2022/09/05 05:11:17;;;;;;;6.95;3.60;;;;;;;;;;5111137;27;20504;-70
2022/09/05 05:13:59;;;;;;;11.02;3.88;;;;;;;;;;5110519;27;20458;-69
2022/09/05 05:16:31;;;;;;;7.22;4.18;;;;;;;;;;5110562;28;20036;-67
2022/09/05 05:21:03;;;;;;;7.80;3.50;;;;;;;;;;5169987;27;20313;-68
2022/09/05 05:23:39;;;;;;;6.60;3.97;;;;;;;;;;5149049;27;20388;-71
2022/09/05 05:26:07;;;;;;;10.20;4.28;;;;;;;;;;5148473;27;20038;-71
2022/09/05 05:28:43;;;;;;;8.63;4.00;;;;;;;;;;5148798;27;20378;-71
2022/09/05 05:31:14;;;;;;;7.72;3.75;;;;;;;;;;5130945;27;20023;-71
2022/09/05 05:33:41;;;;;;;8.43;3.63;;;;;;;;;;5149267;27;20041;-71
2022/09/05 05:36:08;;;;;;;7.72;4.00;;;;;;;;;;5148906;27;20019;-72
2022/09/05 05:38:42;;;;;;;7.68;3.95;;;;;;;;;;5149284;27;20077;-71
2022/09/05 05:44:31;;;;;;;6.80;3.78;;;;;;;;;;5069106;28;20395;-68
2022/09/05 05:47:19;;;;;;;10.48;4.00;;;;;;;;;;5069111;28;20388;-70
2022/09/05 05:51:02;;;;;;;7.82;4.03;;;;;;;;;;5110734;27;20392;-70
2022/09/05 05:56:38;;;;;;;7.72;4.00;;;;;;;;;;5110596;27;20463;-71
2022/09/05 05:59:23;;;;;;;8.20;4.00;;;;;;;;;;5110832;28;20062;-70
2022/09/05 06:02:00;;;;;;;7.20;4.00;;;;;;;;;;5110074;28;20020;-71
2022/09/05 06:05:26;;;;;;;8.30;3.75;;;;;;;;;;5110280;27;20420;-69
2022/09/05 06:08:17;;;;;;;8.95;4.85;;;;;;;;;;5110670;28;20044;-71
2022/09/05 06:11:06;;;;;;;6.72;3.72;;;;;;;;;;5110239;28;20357;-70
2022/09/05 06:15:41;;;;;;;7.93;3.80;;;;;;;;;;5110529;27;20424;-71
2022/09/05 06:19:28;;;;;;;6.43;3.75;;;;;;;;;;5110422;27;20393;-73
2022/09/05 06:24:36;;;;;;;7.05;3.47;;;;;;;;;;5108745;27;20835;-68
2022/09/05 06:27:15;;;;;;;7.20;4.00;;;;;;;;;;5110757;28;20437;-68
2022/09/05 06:29:47;;;;;;;8.23;4.20;;;;;;;;;;5110466;28;20024;-69
2022/09/05 06:32:54;;;;;;;6.90;4.03;;;;;;;;;;5110269;27;20939;-69
2022/09/05 06:35:20;;;;;;;7.53;4.22;;;;;;;;;;5110597;28;20058;-71
2022/09/05 06:38:52;;;;;;;7.60;4.78;;;;;;;;;;5110926;27;20396;-70
2022/09/05 06:41:24;;;;;;;8.00;4.13;;;;;;;;;;5108874;28;20031;-71
2022/09/05 06:43:56;;;;;;;7.50;4.60;;;;;;;;;;5107072;28;20028;-72
2022/09/05 06:46:31;;;;;;;8.43;5.07;;;;;;;;;;5109142;28;20043;-71
2022/09/05 06:49:27;;;;;;;7.68;4.63;;;;;;;;;;5108482;28;20031;-69
2022/09/05 06:52:11;;;;;;;8.80;5.20;;;;;;;;;;5054720;28;20561;-68
2022/09/05 06:54:47;;;;;;;8.57;4.90;;;;;;;;;;5108740;28;20483;-70
2022/09/05 06:57:23;;;;;;;7.45;4.65;;;;;;;;;;5108435;28;20032;-69
2022/09/05 07:00:31;;;;;;;11.38;6.05;;;;;;;;;;5110555;27;20905;-71
2022/09/05 07:03:06;;;;;;;11.23;6.15;;;;;;;;;;5111082;28;20028;-71
2022/09/05 07:05:39;;;;;;;7.90;4.90;;;;;;;;;;5110675;28;20045;-68
2022/09/05 07:10:52;;;;;;;9.23;4.88;;;;;;;;;;5110611;27;20740;-70
2022/09/05 07:13:28;;;;;;;9.60;4.65;;;;;;;;;;5109404;28;20381;-70
2022/09/05 07:16:12;;;;;;;8.45;4.95;;;;;;;;;;5109371;28;20035;-69
2022/09/05 07:19:38;;;;;;;10.05;5.10;;;;;;;;;;5108912;27;20837;-70
2022/09/05 07:22:13;;;;;;;8.77;5.07;;;;;;;;;;5110193;28;20028;-71
2022/09/05 07:24:45;;;;;;;7.88;5.13;;;;;;;;;;5124985;28;20024;-70
2022/09/05 07:27:13;;;;;;;7.18;4.80;;;;;;;;;;5107754;28;20023;-70
2022/09/05 07:29:44;;;;;;;6.72;4.43;;;;;;;;;;5096819;28;20071;-70
2022/09/05 07:32:15;;;;;;;8.45;5.53;;;;;;;;;;5087790;28;20035;-71
2022/09/05 07:38:05;;;;;;;7.72;4.57;;;;;;;;;;5065566;27;20384;-71
2022/09/05 07:41:25;;;;;;;7.15;4.55;;;;;;;;;;5108344;27;20326;-70
2022/09/05 07:43:55;;;;;;;8.70;4.85;;;;;;;;;;5109863;28;20031;-68
2022/09/05 07:46:27;;;;;;;24.08;5.05;;;;;;;;;;5105808;28;20560;-69
2022/09/05 07:49:35;;;;;;;20.15;7.00;;;;;;;;;;5062943;28;20403;-69
2022/09/05 07:52:54;;;;;;;20.77;5.78;;;;;;;;;;5105531;27;20384;-70
2022/09/05 07:59:07;;;;;;;14.07;5.60;;;;;;;;;;5064085;28;20761;-69
2022/09/05 08:01:34;;;;;;;22.95;7.65;;;;;;;;;;5067671;28;20032;-72
2022/09/05 08:04:00;;;;;;;19.77;5.88;;;;;;;;;;5068932;28;20223;-71
2022/09/05 08:06:26;;;;;;;77.60;10.05;;;;;;;;;;5069300;28;20377;-70
2022/09/05 08:09:01;;;;;;;13.98;5.78;;;;;;;;;;5064841;28;20499;-72
2022/09/05 08:11:31;;;;;;;9.23;4.28;;;;;;;;;;5069655;28;20025;-71
2022/09/05 08:15:04;;;;;;;8.57;4.50;;;;;;;;;;5110817;27;20197;-70
2022/09/05 08:20:05;;;;;;;52.00;6.82;;;;;;;;;;5107437;27;20310;-72
2022/09/05 08:22:37;;;;;;;10.73;4.43;;;;;;;;;;5108733;28;20028;-72
2022/09/05 08:25:07;;;;;;;7.47;3.95;;;;;;;;;;5108878;28;20055;-72
2022/09/05 08:27:33;;;;;;;8.55;4.40;;;;;;;;;;5108507;28;20158;-72
2022/09/05 08:30:07;;;;;;;8.05;4.00;;;;;;;;;;5091298;28;20031;-72
2022/09/05 08:33:06;;;;;;;4.80;3.42;;;;;;;;;;5109726;27;20384;-72
2022/09/05 08:35:37;;;;;;;5.97;3.88;;;;;;;;;;5110162;28;20077;-73
2022/09/05 08:38:04;;;;;;;6.57;3.95;;;;;;;;;;5110680;28;20023;-72
2022/09/05 08:41:59;;;;;;;13.10;4.07;;;;;;;;;;5069629;28;20383;-73
2022/09/05 08:45:21;;;;;;;10.27;3.80;;;;;;;;;;5110165;27;20416;-74
2022/09/05 08:47:56;;;;;;;7.95;4.07;;;;;;;;;;5110532;28;20383;-72
2022/09/05 08:53:12;;;;;;;7.50;3.50;;;;;;;;;;5108442;27;20911;-73
2022/09/05 08:55:57;;;;;;;5.30;3.30;;;;;;;;;;5109129;28;20028;-71
2022/09/05 08:58:41;;;;;;;5.70;3.55;;;;;;;;;;5108425;28;20030;-70
2022/09/05 09:01:26;;;;;;;7.57;3.83;;;;;;;;;;5109407;28;20512;-69
2022/09/05 09:04:04;;;;;;;8.98;3.55;;;;;;;;;;5108794;28;20047;-69
2022/09/05 09:06:35;;;;;;;6.53;3.40;;;;;;;;;;5108693;28;20089;-68
2022/09/05 09:09:08;;;;;;;5.78;3.25;;;;;;;;;;5109007;28;20356;-68
2022/09/05 09:11:34;;;;;;;;;;;;;;;;;;5109503;28;20387;-70
2022/09/05 09:14:18;;;;;;;6.50;3.67;;;;;;;;;;5108538;28;19904;-70
2022/09/05 09:16:58;;;;;;;5.28;3.25;;;;;;;;;;5107716;28;20028;-69
2022/09/05 09:19:29;;;;;;;6.00;3.78;;;;;;;;;;5109801;28;20024;-69
2022/09/05 09:22:12;;;;;;;5.53;3.03;;;;;;;;;;5110434;28;20076;-71
2022/09/05 09:24:44;;;;;;;5.53;3.78;;;;;;;;;;5110808;28;20464;-70
2022/09/05 09:27:30;;;;;;;6.97;3.30;;;;;;;;;;5110009;28;20020;-71
2022/09/05 09:31:17;;;;;;;10.07;3.78;;;;;;;;;;5110189;27;20400;-70
2022/09/05 09:33:47;;;;;;;5.97;3.25;;;;;;;;;;5108141;28;20062;-69
2022/09/05 09:36:13;;;;;;;4.88;3.33;;;;;;;;;;5108870;28;20503;-71
2022/09/05 09:39:04;;;;;;;11.10;3.15;;;;;;;;;;5110182;28;20429;-70
2022/09/05 09:41:44;;;;;;;8.40;3.75;;;;;;;;;;5108922;28;20027;-71
2022/09/05 09:44:28;;;;;;;5.20;3.38;;;;;;;;;;5109406;28;20019;-70
2022/09/05 09:46:55;;;;;;;5.35;3.35;;;;;;;;;;5109572;28;20020;-70
2022/09/05 09:49:37;;;;;;;5.82;3.28;;;;;;;;;;5108081;28;20080;-71
2022/09/05 09:52:23;;;;;;;5.30;3.70;;;;;;;;;;5108720;28;20361;-72
2022/09/05 09:57:08;;;;;;;5.28;3.50;;;;;;;;;;5062252;27;1461547;-70
2022/09/05 09:59:46;;;;;;;5.00;3.30;;;;;;;;;;5089623;28;20059;-70
2022/09/05 10:02:25;;;;;;;7.20;3.38;;;;;;;;;;5089178;28;20070;-73
2022/09/05 10:05:00;;;;;;;5.68;3.53;;;;;;;;;;5089333;28;20028;-72
2022/09/05 10:07:35;;;;;;;5.63;3.42;;;;;;;;;;5088859;28;20023;-71
2022/09/05 10:10:20;;;;;;;5.53;3.65;;;;;;;;;;5089773;28;20119;-72
2022/09/05 10:13:02;;;;;;;5.95;3.50;;;;;;;;;;5090071;28;20020;-71
2022/09/05 10:15:29;;;;;;;5.00;3.20;;;;;;;;;;5089714;28;20519;-70
2022/09/05 10:18:04;;;;;;;7.70;3.78;;;;;;;;;;5089972;28;20020;-70
2022/09/05 10:20:30;;;;;;;5.35;3.25;;;;;;;;;;5090262;28;20033;-69
2022/09/05 10:23:03;;;;;;;6.47;3.03;;;;;;;;;;5089741;28;20051;-72
2022/09/05 10:25:29;;;;;;;7.88;4.75;;;;;;;;;;5090266;28;20025;-71
2022/09/05 10:28:05;;;;;;;5.10;3.47;;;;;;;;;;5088631;28;20037;-71
2022/09/05 10:30:45;;;;;;;6.90;3.33;;;;;;;;;;5088498;28;20036;-71
2022/09/05 10:33:15;;;;;;;4.60;2.75;;;;;;;;;;5090089;28;20035;-71
2022/09/05 10:35:42;;;;;;;4.22;2.88;;;;;;;;;;5088490;28;20396;-71
2022/09/05 10:38:18;;;;;;;4.47;3.00;;;;;;;;;;5087919;28;20476;-69
2022/09/05 10:41:10;;;;;;;4.93;2.85;;;;;;;;;;5110230;27;20950;-71
2022/09/05 10:44:03;;;;;;;5.32;2.65;;;;;;;;;;5108633;28;20450;-72
2022/09/05 10:46:29;;;;;;;;;;;;;;;;;;5102712;28;20497;-70
2022/09/05 10:48:58;;;;;;;3.42;2.42;;;;;;;;;;5110010;28;19908;-72
2022/09/05 10:51:34;;;;;;;5.43;3.03;;;;;;;;;;5107361;28;20080;-71
2022/09/05 10:54:00;;;;;;;5.28;3.05;;;;;;;;;;5108120;28;20019;-70
2022/09/05 10:56:31;;;;;;;4.50;2.80;;;;;;;;;;5108531;28;20020;-71
2022/09/05 10:59:00;;;;;;;5.23;2.63;;;;;;;;;;5109997;28;20020;-72
2022/09/05 11:01:38;;;;;;;4.90;2.47;;;;;;;;;;5109822;28;20256;-69
2022/09/05 11:04:04;;;;;;;5.18;2.88;;;;;;;;;;5110175;28;20031;-73
2022/09/05 11:06:47;;;;;;;6.15;2.70;;;;;;;;;;5109279;28;20070;-72
2022/09/05 11:09:14;;;;;;;3.92;2.33;;;;;;;;;;5109749;28;20035;-72
2022/09/05 11:11:44;;;;;;;4.55;2.38;;;;;;;;;;5107819;28;20043;-71
2022/09/05 11:14:34;;;;;;;5.18;2.70;;;;;;;;;;5107636;28;20023;-71
2022/09/05 11:17:16;;;;;;;5.35;3.20;;;;;;;;;;5100269;28;20133;-72
2022/09/05 11:19:51;;;;;;;4.93;3.13;;;;;;;;;;5108144;28;20024;-71
2022/09/05 11:22:17;;;;;;;5.03;3.00;;;;;;;;;;5109070;28;20019;-72
2022/09/05 11:24:48;;;;;;;5.25;2.85;;;;;;;;;;5109085;28;20031;-70
2022/09/05 11:27:33;;;;;;;6.47;2.60;;;;;;;;;;5108594;28;20464;-75
2022/09/05 11:30:02;;;;;;;4.65;3.30;;;;;;;;;;5109691;28;20024;-71
2022/09/05 11:32:31;;;;;;;9.57;2.88;;;;;;;;;;5110295;28;20024;-74
2022/09/05 11:34:58;;;;;;;5.05;2.75;;;;;;;;;;5108690;28;20024;-74
2022/09/05 11:37:24;;;;;;;21.67;4.82;;;;;;;;;;5108143;28;20028;-75
2022/09/05 11:39:50;;;;;;;399.80;44.28;;;;;;;;;;5108036;28;20052;-75
2022/09/05 11:42:19;;;;;;;94.13;12.35;;;;;;;;;;5108909;28;20055;-72
2022/09/05 11:44:55;;;;;;;18.48;4.15;;;;;;;;;;5107117;28;20020;-71
2022/09/05 11:47:40;;;;;;;18.75;3.92;;;;;;;;;;5109124;28;20016;-71
2022/09/05 11:50:24;;;;;;;6.05;2.88;;;;;;;;;;5109440;28;20024;-73
2022/09/05 11:52:51;;;;;;;4.53;2.10;;;;;;;;;;5093639;28;20578;-73
2022/09/05 11:55:24;;;;;;;7.10;2.67;;;;;;;;;;5093297;28;20362;-71
2022/09/05 11:57:53;;;;;;;4.65;2.63;;;;;;;;;;5095521;28;20047;-71
2022/09/05 12:00:22;;;;;;;6.55;2.22;;;;;;;;;;5095483;28;20039;-69
2022/09/05 12:02:49;;;;;;;4.28;2.03;;;;;;;;;;5095476;28;20116;-69
2022/09/05 12:05:34;;;;;;;5.10;2.17;;;;;;;;;;5093850;28;20024;-71
2022/09/05 12:08:05;;;;;;;12.57;3.53;;;;;;;;;;5090758;28;20581;-69
2022/09/05 12:10:40;;;;;;;9.00;2.53;;;;;;;;;;5092159;28;20145;-69
2022/09/05 12:13:26;;;;;;;12.13;3.72;;;;;;;;;;5092297;28;20030;-69
2022/09/05 12:15:53;;;;;;;10.10;2.80;;;;;;;;;;5091767;28;20071;-69
2022/09/05 12:18:19;;;;;;;8.30;3.03;;;;;;;;;;5092267;28;20133;-69
2022/09/05 12:20:53;;;;;;;6.65;2.45;;;;;;;;;;5090832;28;20523;-70
2022/09/05 12:23:28;;;;;;;5.43;2.13;;;;;;;;;;5093551;28;20463;-69
2022/09/05 12:26:04;;;;;;;7.80;2.17;;;;;;;;;;5094183;28;20028;-69
2022/09/05 12:28:36;;;;;;;9.57;2.42;;;;;;;;;;5094323;28;20048;-69
2022/09/05 12:31:13;;;;;;;4.88;2.17;;;;;;;;;;5095064;28;20028;-70
2022/09/05 12:33:43;;;;;;;6.18;2.40;;;;;;;;;;5094434;28;20031;-69
2022/09/05 12:36:30;;;;;;;4.72;2.33;;;;;;;;;;5092854;28;20020;-70
2022/09/05 12:39:17;;;;;;;5.28;2.35;;;;;;;;;;5092896;28;20409;-69
2022/09/05 12:41:47;;;;;;;6.32;1.95;;;;;;;;;;5061350;28;20032;-70
2022/09/05 12:44:19;;;;;;;5.18;2.60;;;;;;;;;;5092734;28;20020;-68
2022/09/05 12:46:45;;;;;;;;;;;;;;;;;;5093348;28;20020;-68
2022/09/05 12:49:21;;;;;;;4.18;2.08;;;;;;;;;;5092732;28;19908;-68
2022/09/05 12:51:54;;;;;;;3.22;1.70;;;;;;;;;;5092939;28;20094;-69
2022/09/05 12:54:32;;;;;;;2.92;1.85;;;;;;;;;;5094054;28;20020;-70
2022/09/05 12:57:10;;;;;;;3.63;2.10;;;;;;;;;;5094786;28;20062;-70
2022/09/05 12:59:37;;;;;;;7.75;2.33;;;;;;;;;;5095143;28;20036;-70
2022/09/05 13:02:06;;;;;;;9.35;2.67;;;;;;;;;;5094942;28;20031;-70
2022/09/05 13:04:43;;;;;;;8.10;2.30;;;;;;;;;;5094233;28;20016;-70
2022/09/05 13:07:13;;;;;;;5.57;2.33;;;;;;;;;;5095274;28;20134;-70
2022/09/05 13:09:47;;;;;;;5.18;2.05;;;;;;;;;;5094840;28;20024;-71
2022/09/05 13:12:18;;;;;;;3.33;1.83;;;;;;;;;;5094461;28;20028;-70
2022/09/05 13:14:58;;;;;;;3.88;1.45;;;;;;;;;;5093565;28;20103;-70
2022/09/05 13:17:37;;;;;;;3.78;1.83;;;;;;;;;;5094940;28;20016;-70
2022/09/05 13:20:07;;;;;;;6.03;2.08;;;;;;;;;;5094282;28;20028;-70
2022/09/05 13:22:37;;;;;;;2.85;1.67;;;;;;;;;;5094654;28;20020;-70
2022/09/05 13:25:07;;;;;;;2.38;1.70;;;;;;;;;;5094300;28;20028;-70
2022/09/05 13:27:38;;;;;;;4.57;1.60;;;;;;;;;;5094552;28;20124;-70
2022/09/05 13:30:08;;;;;;;3.20;1.90;;;;;;;;;;5094689;28;20413;-70
2022/09/05 13:32:43;;;;;;;2.55;1.70;;;;;;;;;;5094366;28;20020;-69
2022/09/05 13:35:12;;;;;;;2.33;1.48;;;;;;;;;;5094775;28;20046;-70
2022/09/05 13:37:43;;;;;;;2.35;1.77;;;;;;;;;;5094298;28;20107;-70
2022/09/05 13:40:11;;;;;;;3.92;1.90;;;;;;;;;;5093796;28;20464;-70
2022/09/05 13:42:43;;;;;;;2.42;1.50;;;;;;;;;;5094369;28;20043;-71
2022/09/05 13:45:17;;;;;;;3.25;1.38;;;;;;;;;;5094524;28;20024;-70
2022/09/05 13:47:48;;;;;;;2.80;1.50;;;;;;;;;;5093887;28;20024;-70
2022/09/05 13:50:18;;;;;;;3.50;1.73;;;;;;;;;;5093199;28;20447;-70
2022/09/05 13:52:51;;;;;;;4.22;2.03;;;;;;;;;;5092876;28;20036;-69
2022/09/05 13:55:22;;;;;;;3.35;1.73;;;;;;;;;;5093801;28;20028;-70
2022/09/05 13:57:51;;;;;;;2.97;1.60;;;;;;;;;;5094018;28;20028;-70
2022/09/05 14:00:20;;;;;;;2.33;1.75;;;;;;;;;;5093483;28;20074;-71
2022/09/05 14:03:07;;;;;;;2.92;1.83;;;;;;;;;;5093883;28;20557;-70
2022/09/05 14:05:39;;;;;;;2.90;1.70;;;;;;;;;;5093960;28;20482;-71
2022/09/05 14:08:32;;;;;;;2.97;1.80;;;;;;;;;;5093651;28;20016;-70
2022/09/05 14:11:17;;;;;;;2.88;1.80;;;;;;;;;;5094019;28;20073;-70
2022/09/05 14:13:49;;;;;;;3.50;1.80;;;;;;;;;;5093641;28;20039;-70
2022/09/05 14:16:20;;;;;;;4.63;2.28;;;;;;;;;;5093418;28;20138;-70
2022/09/05 14:21:34;;;;;;;4.07;1.60;;;;;;;;;;5093779;28;20606;-70
2022/09/05 14:24:13;;;;;;;2.13;1.38;;;;;;;;;;5093712;28;20470;-70
2022/09/05 14:26:45;;;;;;;2.28;1.50;;;;;;;;;;5093614;28;20020;-70
2022/09/05 14:29:15;;;;;;;3.22;1.95;;;;;;;;;;5093301;28;20384;-71
2022/09/05 14:31:55;;;;;;;3.28;1.52;;;;;;;;;;5094288;28;20024;-70
2022/09/05 14:34:40;;;;;;;3.05;1.67;;;;;;;;;;5093599;28;20020;-70
2022/09/05 14:37:21;;;;;;;1.42;1.20;;;;;;;;;;5093164;28;20035;-70
2022/09/05 14:40:03;;;;;;;1.88;1.30;;;;;;;;;;5093247;28;20400;-70
2022/09/05 14:42:38;;;;;;;3.08;1.58;;;;;;;;;;5093176;28;20036;-70
2022/09/05 14:45:04;;;;;;;5.45;1.40;;;;;;;;;;5093602;28;20020;-70
2022/09/05 14:47:52;;;;;;;2.65;1.40;;;;;;;;;;5093345;28;20460;-70
2022/09/05 14:50:26;;;;;;;5.03;1.45;;;;;;;;;;5093210;28;20430;-71
2022/09/05 14:53:06;;;;;;;2.50;1.45;;;;;;;;;;5093834;28;20028;-71
2022/09/05 14:55:35;;;;;;;2.45;1.40;;;;;;;;;;5093508;28;20034;-71
2022/09/05 14:58:01;;;;;;;2.30;1.45;;;;;;;;;;5092853;28;20400;-71
2022/09/05 15:00:30;;;;;;;3.00;1.60;;;;;;;;;;5093170;28;20157;-72
2022/09/05 15:02:59;;;;;;;4.13;1.35;;;;;;;;;;5093264;28;20023;-72
2022/09/05 15:05:27;;;;;;;1.98;1.42;;;;;;;;;;5092808;28;20032;-70
2022/09/05 15:08:05;;;;;;;2.90;1.63;;;;;;;;;;5093317;28;20058;-71
2022/09/05 15:10:44;;;;;;;2.75;1.70;;;;;;;;;;5093004;28;20115;-71
2022/09/05 15:13:11;;;;;;;3.10;1.80;;;;;;;;;;5093290;28;20020;-71
2022/09/05 15:15:44;;;;;;;3.70;1.50;;;;;;;;;;5091830;28;20676;-71
2022/09/05 15:18:12;;;;;;;2.30;1.52;;;;;;;;;;5092703;28;20097;-71
2022/09/05 15:20:41;;;;;;;2.22;1.60;;;;;;;;;;5093055;28;20066;-71
2022/09/05 15:23:14;;;;;;;1.90;1.48;;;;;;;;;;5093101;28;20020;-70
2022/09/05 15:26:09;;;;;;;2.80;1.63;;;;;;;;;;5093092;28;20028;-70
2022/09/05 15:28:37;;;;;;;2.03;1.25;;;;;;;;;;5095335;28;20032;-70
2022/09/05 15:31:06;;;;;;;2.72;1.50;;;;;;;;;;5096888;28;20032;-70
2022/09/05 15:33:33;;;;;;;2.20;1.60;;;;;;;;;;5096324;28;20020;-70
2022/09/05 15:36:00;;;;;;;4.57;1.70;;;;;;;;;;5096769;28;20028;-70
2022/09/05 15:38:26;;;;;;;2.95;1.60;;;;;;;;;;5096567;28;20036;-70
2022/09/05 15:41:03;;;;;;;4.13;1.40;;;;;;;;;;5096600;28;20040;-70
2022/09/05 15:43:30;;;;;;;2.47;1.50;;;;;;;;;;5096813;28;20023;-71
2022/09/05 15:46:02;;;;;;;3.22;1.70;;;;;;;;;;5096151;28;20028;-71
2022/09/05 15:48:29;;;;;;;2.03;1.45;;;;;;;;;;5096455;28;20016;-71
2022/09/05 15:50:56;;;;;;;2.60;1.50;;;;;;;;;;5096561;28;20020;-71
2022/09/05 15:53:24;;;;;;;2.17;1.40;;;;;;;;;;5096160;28;20032;-71
2022/09/05 15:55:51;;;;;;;2.33;1.40;;;;;;;;;;5094897;28;20414;-71
2022/09/05 15:58:18;;;;;;;5.43;1.58;;;;;;;;;;5096320;28;20556;-71
2022/09/05 16:00:47;;;;;;;2.15;1.60;;;;;;;;;;5095873;28;20089;-71
2022/09/05 16:03:19;;;;;;;2.38;1.80;;;;;;;;;;5096311;28;20051;-71
2022/09/05 16:05:53;;;;;;;2.65;1.50;;;;;;;;;;5096165;28;20493;-71
2022/09/05 16:08:21;;;;;;;3.33;2.00;;;;;;;;;;5096042;28;20016;-71
2022/09/05 16:10:47;;;;;;;1.85;1.50;;;;;;;;;;5096138;28;20027;-71
2022/09/05 16:13:16;;;;;;;2.92;1.50;;;;;;;;;;5096101;28;20032;-71
2022/09/05 16:15:48;;;;;;;8.20;2.13;;;;;;;;;;5095577;28;20028;-71
2022/09/05 16:18:26;;;;;;;2.38;1.63;;;;;;;;;;5095981;28;20027;-71
2022/09/05 16:20:57;;;;;;;3.40;1.40;;;;;;;;;;5094593;28;20040;-71
2022/09/05 16:23:29;;;;;;;3.45;1.80;;;;;;;;;;5095557;28;20024;-71
2022/09/05 16:26:01;;;;;;;3.30;1.75;;;;;;;;;;5095864;28;20060;-71
2022/09/05 16:28:29;;;;;;;2.30;1.50;;;;;;;;;;5095403;28;20035;-71
2022/09/05 16:31:00;;;;;;;4.47;2.05;;;;;;;;;;5095690;28;20025;-70
2022/09/05 16:33:28;;;;;;;5.05;1.88;;;;;;;;;;5095605;28;20500;-71
2022/09/05 16:36:25;;;;;;;3.22;1.63;;;;;;;;;;5095056;28;20480;-71
2022/09/05 16:38:52;;;;;;;3.63;2.00;;;;;;;;;;5082939;28;20418;-71
2022/09/05 16:41:26;;;;;;;3.35;2.00;;;;;;;;;;5095647;28;20032;-71
2022/09/05 16:43:55;;;;;;;3.60;2.05;;;;;;;;;;5095220;28;20158;-71
2022/09/05 16:46:25;;;;;;;3.67;2.10;;;;;;;;;;5095429;28;20020;-71
2022/09/05 16:48:51;;;;;;;3.55;1.85;;;;;;;;;;5093886;28;20020;-70
2022/09/05 16:51:29;;;;;;;4.57;2.60;;;;;;;;;;5093546;28;20047;-71
2022/09/05 16:53:59;;;;;;;6.95;2.30;;;;;;;;;;5095489;28;20043;-71
2022/09/05 16:56:57;;;;;;;3.80;2.10;;;;;;;;;;5094986;28;20027;-71
2022/09/05 16:59:29;;;;;;;7.47;2.28;;;;;;;;;;5061462;28;20135;-71
2022/09/05 17:01:58;;;;;;;5.75;2.53;;;;;;;;;;5094995;28;20142;-72
2022/09/05 17:04:26;;;;;;;6.70;2.60;;;;;;;;;;5094629;28;20376;-71
2022/09/05 17:07:10;;;;;;;2.95;1.92;;;;;;;;;;5094891;28;20028;-71
2022/09/05 17:09:39;;;;;;;4.45;2.15;;;;;;;;;;5094945;28;20047;-71
2022/09/05 17:12:16;;;;;;;6.45;3.53;;;;;;;;;;5094613;28;20028;-71
2022/09/05 17:14:52;;;;;;;7.32;4.05;;;;;;;;;;5094943;28;20028;-71
2022/09/05 17:17:20;;;;;;;5.82;2.97;;;;;;;;;;5093471;28;20031;-71
2022/09/05 17:22:09;;;;;;;8.25;2.60;;;;;;;;;;5111340;27;20414;-69
2022/09/05 17:24:40;;;;;;;7.03;2.63;;;;;;;;;;5111167;28;20038;-70
2022/09/05 17:27:26;;;;;;;7.38;2.90;;;;;;;;;;5111400;28;20024;-70
2022/09/05 17:29:52;;;;;;;5.63;2.42;;;;;;;;;;5111229;28;20016;-70
2022/09/05 17:32:28;;;;;;;6.60;2.40;;;;;;;;;;5110616;28;20469;-69
2022/09/05 17:34:57;;;;;;;6.13;3.00;;;;;;;;;;5111182;28;20028;-71
2022/09/05 17:37:33;;;;;;;4.35;2.53;;;;;;;;;;5110938;28;20035;-70